sensor_id;sensor_type;location;lat;lon;timestamp;temperature;humidity
17529;DHT22;8882;53.192;8.184;2022-07-29T17:54:19;20.70;99.90
17529;DHT22;8882;53.192;8.184;2022-07-29T17:56:44;20.50;99.90
17529;DHT22;8882;53.192;8.184;2022-07-29T17:59:10;20.50;99.90
17529;DHT22;8882;53.192;8.184;2022-07-29T18:01:36;20.50;99.90
17529;DHT22;8882;53.192;8.184;2022-07-29T18:04:02;20.50;99.90
17529;DHT22;8882;53.192;8.184;2022-07-29T18:06:28;20.50;99.90
17529;DHT22;8882;53.192;8.184;2022-07-29T18:08:54;20.40;99.90
17529;DHT22;8882;53.192;8.184;2022-07-29T18:11:20;20.40;99.90
17529;DHT22;8882;53.192;8.184;2022-07-29T18:13:46;20.40;99.90
17529;DHT22;8882;53.192;8.184;2022-07-29T18:16:11;20.40;99.90
17529;DHT22;8882;53.192;8.184;2022-07-29T18:18:37;20.30;99.90
17529;DHT22;8882;53.192;8.184;2022-07-29T18:21:03;20.40;99.90
17529;DHT22;8882;53.192;8.184;2022-07-29T18:23:28;20.30;99.90
17529;DHT22;8882;53.192;8.184;2022-07-29T18:25:54;20.30;99.90
17529;DHT22;8882;53.192;8.184;2022-07-29T18:28:19;20.20;99.90
17529;DHT22;8882;53.192;8.184;2022-07-29T18:30:45;20.20;99.90
17529;DHT22;8882;53.192;8.184;2022-07-29T18:33:11;20.20;99.90
17529;DHT22;8882;53.192;8.184;2022-07-29T18:35:43;20.20;99.90
17529;DHT22;8882;53.192;8.184;2022-07-29T18:38:09;20.20;99.90
17529;DHT22;8882;53.192;8.184;2022-07-29T18:40:34;20.20;99.90
17529;DHT22;8882;53.192;8.184;2022-07-29T18:43:00;20.20;99.90
17529;DHT22;8882;53.192;8.184;2022-07-29T18:45:26;20.20;99.90
17529;DHT22;8882;53.192;8.184;2022-07-29T18:47:51;20.20;99.90
17529;DHT22;8882;53.192;8.184;2022-07-29T18:50:17;20.30;99.90
17529;DHT22;8882;53.192;8.184;2022-07-29T18:52:44;20.30;99.90
17529;DHT22;8882;53.192;8.184;2022-07-29T18:55:10;20.30;99.90
17529;DHT22;8882;53.192;8.184;2022-07-29T18:57:36;20.30;99.90
17529;DHT22;8882;53.192;8.184;2022-07-29T19:00:02;20.20;99.90
17529;DHT22;8882;53.192;8.184;2022-07-29T19:02:28;20.20;99.90
17529;DHT22;8882;53.192;8.184;2022-07-29T19:04:53;20.20;99.90
17529;DHT22;8882;53.192;8.184;2022-07-29T19:07:21;20.10;99.90
17529;DHT22;8882;53.192;8.184;2022-07-29T19:09:50;20.10;99.90
17529;DHT22;8882;53.192;8.184;2022-07-29T19:12:16;20.10;99.90
17529;DHT22;8882;53.192;8.184;2022-07-29T19:14:41;20.10;99.90
17529;DHT22;8882;53.192;8.184;2022-07-29T19:17:08;20.10;99.90
17529;DHT22;8882;53.192;8.184;2022-07-29T19:19:33;20.00;99.90
17529;DHT22;8882;53.192;8.184;2022-07-29T19:21:59;20.00;99.90
17529;DHT22;8882;53.192;8.184;2022-07-29T19:24:26;20.00;99.90
17529;DHT22;8882;53.192;8.184;2022-07-29T19:26:53;19.90;99.90
17529;DHT22;8882;53.192;8.184;2022-07-29T19:29:18;19.90;99.90
17529;DHT22;8882;53.192;8.184;2022-07-29T19:31:44;19.90;99.90
17529;DHT22;8882;53.192;8.184;2022-07-29T19:34:10;19.90;99.90
17529;DHT22;8882;53.192;8.184;2022-07-29T19:36:35;19.90;99.90
17529;DHT22;8882;53.192;8.184;2022-07-29T19:39:01;19.80;99.90
17529;DHT22;8882;53.192;8.184;2022-07-29T19:41:27;19.80;99.90
17529;DHT22;8882;53.192;8.184;2022-07-29T19:43:53;19.80;99.90
17529;DHT22;8882;53.192;8.184;2022-07-29T19:46:22;19.80;99.90
17529;DHT22;8882;53.192;8.184;2022-07-29T19:48:48;19.80;99.90
17529;DHT22;8882;53.192;8.184;2022-07-29T19:51:14;19.70;99.90
17529;DHT22;8882;53.192;8.184;2022-07-29T19:53:39;19.70;99.90
17529;DHT22;8882;53.192;8.184;2022-07-29T19:56:05;19.70;99.90
17529;DHT22;8882;53.192;8.184;2022-07-29T19:58:30;19.70;99.90
17529;DHT22;8882;53.192;8.184;2022-07-29T20:00:56;19.70;99.90
17529;DHT22;8882;53.192;8.184;2022-07-29T20:03:21;19.70;99.90
17529;DHT22;8882;53.192;8.184;2022-07-29T20:05:47;19.60;99.90
17529;DHT22;8882;53.192;8.184;2022-07-29T20:08:16;19.70;99.90
17529;DHT22;8882;53.192;8.184;2022-07-29T20:10:41;19.70;99.90
17529;DHT22;8882;53.192;8.184;2022-07-29T20:13:07;19.70;99.90
17529;DHT22;8882;53.192;8.184;2022-07-29T20:15:32;19.70;99.90
17529;DHT22;8882;53.192;8.184;2022-07-29T20:17:58;19.70;99.90
17529;DHT22;8882;53.192;8.184;2022-07-29T20:20:24;19.70;99.90
17529;DHT22;8882;53.192;8.184;2022-07-29T20:22:50;19.70;99.90
17529;DHT22;8882;53.192;8.184;2022-07-29T20:25:16;19.70;99.90
17529;DHT22;8882;53.192;8.184;2022-07-29T20:27:41;19.80;99.90
17529;DHT22;8882;53.192;8.184;2022-07-29T20:30:07;19.70;99.90
17529;DHT22;8882;53.192;8.184;2022-07-29T20:32:33;19.80;99.90
17529;DHT22;8882;53.192;8.184;2022-07-29T20:34:59;19.80;99.90
17529;DHT22;8882;53.192;8.184;2022-07-29T20:37:24;19.80;99.90
17529;DHT22;8882;53.192;8.184;2022-07-29T20:39:50;19.70;99.90
17529;DHT22;8882;53.192;8.184;2022-07-29T20:42:16;19.70;99.90
17529;DHT22;8882;53.192;8.184;2022-07-29T20:44:42;19.70;99.90
17529;DHT22;8882;53.192;8.184;2022-07-29T20:47:07;19.70;99.90
17529;DHT22;8882;53.192;8.184;2022-07-29T20:49:33;19.60;99.90
17529;DHT22;8882;53.192;8.184;2022-07-29T20:52:00;19.70;99.90
17529;DHT22;8882;53.192;8.184;2022-07-29T20:54:26;19.60;99.90
17529;DHT22;8882;53.192;8.184;2022-07-29T20:56:52;19.60;99.90
17529;DHT22;8882;53.192;8.184;2022-07-29T20:59:17;19.60;99.90
